sensor_id;sensor_type;location;lat;lon;timestamp;P1;durP1;ratioP1;P2;durP2;ratioP2
56299;SDS011;42209;6.376;-10.782;2023-07-30T00:00:45;5.22;;;4.82;;
56299;SDS011;42209;6.376;-10.782;2023-07-30T00:03:16;4.90;;;4.50;;
56299;SDS011;42209;6.376;-10.782;2023-07-30T00:05:51;5.57;;;5.07;;
56299;SDS011;42209;6.376;-10.782;2023-07-30T00:08:21;5.35;;;4.60;;
56299;SDS011;42209;6.376;-10.782;2023-07-30T00:10:50;4.82;;;4.03;;
56299;SDS011;42209;6.376;-10.782;2023-07-30T00:13:18;4.82;;;4.43;;
56299;SDS011;42209;6.376;-10.782;2023-07-30T00:15:47;5.28;;;4.20;;
56299;SDS011;42209;6.376;-10.782;2023-07-30T00:18:16;4.93;;;4.45;;
56299;SDS011;42209;6.376;-10.782;2023-07-30T00:20:45;5.22;;;4.68;;
56299;SDS011;42209;6.376;-10.782;2023-07-30T00:23:14;5.22;;;4.68;;
56299;SDS011;42209;6.376;-10.782;2023-07-30T00:25:42;5.00;;;4.55;;
56299;SDS011;42209;6.376;-10.782;2023-07-30T00:28:10;4.97;;;4.50;;
56299;SDS011;42209;6.376;-10.782;2023-07-30T00:30:39;5.10;;;4.60;;
56299;SDS011;42209;6.376;-10.782;2023-07-30T00:33:07;5.07;;;4.35;;
56299;SDS011;42209;6.376;-10.782;2023-07-30T00:35:36;6.70;;;5.05;;
56299;SDS011;42209;6.376;-10.782;2023-07-30T00:38:04;4.85;;;4.35;;
56299;SDS011;42209;6.376;-10.782;2023-07-30T00:40:33;5.20;;;4.70;;
56299;SDS011;42209;6.376;-10.782;2023-07-30T00:43:08;5.28;;;4.78;;
56299;SDS011;42209;6.376;-10.782;2023-07-30T00:45:36;4.93;;;4.53;;
56299;SDS011;42209;6.376;-10.782;2023-07-30T00:48:08;5.63;;;5.13;;
56299;SDS011;42209;6.376;-10.782;2023-07-30T00:50:40;5.18;;;4.70;;
56299;SDS011;42209;6.376;-10.782;2023-07-30T00:55:38;5.43;;;4.93;;
56299;SDS011;42209;6.376;-10.782;2023-07-30T00:58:07;6.82;;;5.50;;
56299;SDS011;42209;6.376;-10.782;2023-07-30T01:00:38;5.28;;;4.82;;
56299;SDS011;42209;6.376;-10.782;2023-07-30T01:03:08;5.72;;;5.22;;
56299;SDS011;42209;6.376;-10.782;2023-07-30T01:05:36;5.82;;;5.22;;
56299;SDS011;42209;6.376;-10.782;2023-07-30T01:10:33;5.72;;;5.22;;
56299;SDS011;42209;6.376;-10.782;2023-07-30T01:13:04;6.20;;;5.70;;
56299;SDS011;42209;6.376;-10.782;2023-07-30T01:15:36;6.50;;;5.90;;
56299;SDS011;42209;6.376;-10.782;2023-07-30T01:18:05;6.20;;;5.68;;
56299;SDS011;42209;6.376;-10.782;2023-07-30T01:20:34;6.55;;;5.82;;
56299;SDS011;42209;6.376;-10.782;2023-07-30T01:23:02;6.22;;;5.60;;
56299;SDS011;42209;6.376;-10.782;2023-07-30T01:25:33;9.77;;;6.50;;
56299;SDS011;42209;6.376;-10.782;2023-07-30T01:28:04;5.50;;;5.00;;
56299;SDS011;42209;6.376;-10.782;2023-07-30T01:30:42;5.50;;;5.00;;
56299;SDS011;42209;6.376;-10.782;2023-07-30T01:33:13;6.15;;;5.63;;
56299;SDS011;42209;6.376;-10.782;2023-07-30T01:35:42;5.60;;;5.10;;
56299;SDS011;42209;6.376;-10.782;2023-07-30T01:40:40;5.53;;;4.85;;
56299;SDS011;42209;6.376;-10.782;2023-07-30T01:43:09;5.85;;;5.35;;
56299;SDS011;42209;6.376;-10.782;2023-07-30T01:45:38;5.60;;;5.10;;
56299;SDS011;42209;6.376;-10.782;2023-07-30T01:48:07;4.90;;;4.50;;
56299;SDS011;42209;6.376;-10.782;2023-07-30T01:53:03;5.80;;;5.30;;
56299;SDS011;42209;6.376;-10.782;2023-07-30T01:58:00;5.75;;;5.25;;
56299;SDS011;42209;6.376;-10.782;2023-07-30T02:00:29;5.22;;;4.78;;
56299;SDS011;42209;6.376;-10.782;2023-07-30T02:03:02;4.97;;;4.47;;
56299;SDS011;42209;6.376;-10.782;2023-07-30T02:05:31;6.03;;;5.20;;
56299;SDS011;42209;6.376;-10.782;2023-07-30T02:08:01;5.00;;;4.60;;
56299;SDS011;42209;6.376;-10.782;2023-07-30T02:10:30;6.15;;;5.55;;
56299;SDS011;42209;6.376;-10.782;2023-07-30T02:12:58;4.60;;;4.20;;
56299;SDS011;42209;6.376;-10.782;2023-07-30T02:17:55;6.72;;;5.15;;
56299;SDS011;42209;6.376;-10.782;2023-07-30T02:20:23;5.95;;;5.18;;
56299;SDS011;42209;6.376;-10.782;2023-07-30T02:22:52;5.00;;;4.55;;
56299;SDS011;42209;6.376;-10.782;2023-07-30T02:25:20;6.00;;;5.43;;
56299;SDS011;42209;6.376;-10.782;2023-07-30T02:27:49;4.85;;;4.38;;
56299;SDS011;42209;6.376;-10.782;2023-07-30T02:30:17;5.45;;;4.75;;
56299;SDS011;42209;6.376;-10.782;2023-07-30T02:32:45;5.53;;;5.00;;
56299;SDS011;42209;6.376;-10.782;2023-07-30T02:35:14;5.68;;;5.05;;
56299;SDS011;42209;6.376;-10.782;2023-07-30T02:40:11;5.72;;;5.22;;
56299;SDS011;42209;6.376;-10.782;2023-07-30T02:42:39;5.10;;;4.70;;
56299;SDS011;42209;6.376;-10.782;2023-07-30T02:45:09;5.00;;;4.50;;
56299;SDS011;42209;6.376;-10.782;2023-07-30T02:47:38;4.68;;;4.28;;
56299;SDS011;42209;6.376;-10.782;2023-07-30T02:50:08;5.68;;;4.72;;
56299;SDS011;42209;6.376;-10.782;2023-07-30T02:52:37;4.35;;;4.03;;
56299;SDS011;42209;6.376;-10.782;2023-07-30T02:55:05;4.80;;;4.35;;
56299;SDS011;42209;6.376;-10.782;2023-07-30T02:57:34;5.85;;;4.25;;
56299;SDS011;42209;6.376;-10.782;2023-07-30T03:00:03;5.82;;;4.85;;
56299;SDS011;42209;6.376;-10.782;2023-07-30T03:02:32;5.65;;;4.72;;
56299;SDS011;42209;6.376;-10.782;2023-07-30T03:05:00;4.40;;;4.00;;
56299;SDS011;42209;6.376;-10.782;2023-07-30T03:07:29;7.40;;;4.60;;
56299;SDS011;42209;6.376;-10.782;2023-07-30T03:09:57;4.45;;;4.05;;
56299;SDS011;42209;6.376;-10.782;2023-07-30T03:12:26;5.13;;;3.67;;
56299;SDS011;42209;6.376;-10.782;2023-07-30T03:14:56;6.95;;;4.43;;
56299;SDS011;42209;6.376;-10.782;2023-07-30T03:17:25;5.00;;;4.60;;
56299;SDS011;42209;6.376;-10.782;2023-07-30T03:22:21;4.93;;;4.43;;
56299;SDS011;42209;6.376;-10.782;2023-07-30T03:24:50;4.95;;;3.95;;
56299;SDS011;42209;6.376;-10.782;2023-07-30T03:27:18;6.00;;;4.47;;
56299;SDS011;42209;6.376;-10.782;2023-07-30T03:29:47;5.15;;;4.30;;
56299;SDS011;42209;6.376;-10.782;2023-07-30T03:32:16;7.50;;;5.43;;
56299;SDS011;42209;6.376;-10.782;2023-07-30T03:34:44;5.40;;;4.35;;
56299;SDS011;42209;6.376;-10.782;2023-07-30T03:37:13;4.15;;;3.75;;
56299;SDS011;42209;6.376;-10.782;2023-07-30T03:39:41;4.43;;;3.92;;
56299;SDS011;42209;6.376;-10.782;2023-07-30T03:42:09;5.45;;;3.85;;
56299;SDS011;42209;6.376;-10.782;2023-07-30T03:44:38;4.88;;;4.05;;
56299;SDS011;42209;6.376;-10.782;2023-07-30T03:47:07;4.68;;;3.83;;
56299;SDS011;42209;6.376;-10.782;2023-07-30T03:49:35;4.38;;;3.97;;
56299;SDS011;42209;6.376;-10.782;2023-07-30T03:52:04;5.43;;;4.07;;
56299;SDS011;42209;6.376;-10.782;2023-07-30T03:54:33;4.90;;;4.38;;
56299;SDS011;42209;6.376;-10.782;2023-07-30T03:57:01;4.53;;;3.80;;
56299;SDS011;42209;6.376;-10.782;2023-07-30T03:59:30;4.88;;;3.90;;
56299;SDS011;42209;6.376;-10.782;2023-07-30T04:01:58;4.15;;;3.75;;
56299;SDS011;42209;6.376;-10.782;2023-07-30T04:04:28;6.43;;;3.63;;
56299;SDS011;42209;6.376;-10.782;2023-07-30T04:06:59;4.63;;;4.22;;
56299;SDS011;42209;6.376;-10.782;2023-07-30T04:09:27;4.07;;;3.63;;
56299;SDS011;42209;6.376;-10.782;2023-07-30T04:12:02;4.53;;;4.13;;
56299;SDS011;42209;6.376;-10.782;2023-07-30T04:17:00;4.97;;;4.20;;
56299;SDS011;42209;6.376;-10.782;2023-07-30T04:19:28;4.78;;;4.38;;
56299;SDS011;42209;6.376;-10.782;2023-07-30T04:21:57;4.75;;;4.30;;
56299;SDS011;42209;6.376;-10.782;2023-07-30T04:24:26;4.47;;;4.00;;
56299;SDS011;42209;6.376;-10.782;2023-07-30T04:26:54;5.32;;;4.05;;
56299;SDS011;42209;6.376;-10.782;2023-07-30T04:29:23;4.22;;;3.85;;
56299;SDS011;42209;6.376;-10.782;2023-07-30T04:31:52;4.90;;;3.55;;
56299;SDS011;42209;6.376;-10.782;2023-07-30T04:34:20;4.40;;;3.85;;
56299;SDS011;42209;6.376;-10.782;2023-07-30T04:39:18;6.20;;;4.28;;
56299;SDS011;42209;6.376;-10.782;2023-07-30T04:41:47;3.90;;;3.53;;
56299;SDS011;42209;6.376;-10.782;2023-07-30T04:44:16;3.88;;;3.55;;
56299;SDS011;42209;6.376;-10.782;2023-07-30T04:46:44;4.20;;;3.80;;
56299;SDS011;42209;6.376;-10.782;2023-07-30T04:49:13;3.85;;;3.55;;
56299;SDS011;42209;6.376;-10.782;2023-07-30T04:51:41;4.80;;;3.97;;
56299;SDS011;42209;6.376;-10.782;2023-07-30T04:54:10;3.67;;;3.38;;
56299;SDS011;42209;6.376;-10.782;2023-07-30T04:59:07;4.40;;;4.00;;
56299;SDS011;42209;6.376;-10.782;2023-07-30T05:01:35;4.30;;;3.90;;
56299;SDS011;42209;6.376;-10.782;2023-07-30T05:04:04;5.93;;;3.78;;
56299;SDS011;42209;6.376;-10.782;2023-07-30T05:06:33;5.05;;;4.55;;
56299;SDS011;42209;6.376;-10.782;2023-07-30T05:09:01;4.50;;;3.70;;
56299;SDS011;42209;6.376;-10.782;2023-07-30T05:11:30;4.47;;;3.72;;
56299;SDS011;42209;6.376;-10.782;2023-07-30T05:13:58;4.15;;;3.80;;
56299;SDS011;42209;6.376;-10.782;2023-07-30T05:16:27;5.03;;;3.92;;
56299;SDS011;42209;6.376;-10.782;2023-07-30T05:18:55;5.07;;;4.57;;
56299;SDS011;42209;6.376;-10.782;2023-07-30T05:21:24;5.07;;;4.05;;
56299;SDS011;42209;6.376;-10.782;2023-07-30T05:23:52;4.72;;;4.32;;
56299;SDS011;42209;6.376;-10.782;2023-07-30T05:26:21;4.55;;;4.15;;
56299;SDS011;42209;6.376;-10.782;2023-07-30T05:28:49;5.03;;;4.20;;
56299;SDS011;42209;6.376;-10.782;2023-07-30T05:31:17;4.80;;;4.15;;
56299;SDS011;42209;6.376;-10.782;2023-07-30T05:33:46;3.88;;;3.58;;
56299;SDS011;42209;6.376;-10.782;2023-07-30T05:36:14;4.53;;;3.90;;
56299;SDS011;42209;6.376;-10.782;2023-07-30T05:38:43;4.53;;;3.58;;
56299;SDS011;42209;6.376;-10.782;2023-07-30T05:41:11;4.80;;;4.40;;
56299;SDS011;42209;6.376;-10.782;2023-07-30T05:43:39;6.55;;;5.07;;
56299;SDS011;42209;6.376;-10.782;2023-07-30T05:46:08;5.15;;;4.68;;
56299;SDS011;42209;6.376;-10.782;2023-07-30T05:48:37;5.75;;;5.00;;
56299;SDS011;42209;6.376;-10.782;2023-07-30T05:51:05;5.13;;;4.00;;
56299;SDS011;42209;6.376;-10.782;2023-07-30T05:53:34;7.60;;;5.30;;
56299;SDS011;42209;6.376;-10.782;2023-07-30T05:56:02;5.68;;;5.18;;
56299;SDS011;42209;6.376;-10.782;2023-07-30T06:00:59;4.43;;;3.90;;
56299;SDS011;42209;6.376;-10.782;2023-07-30T06:03:28;6.13;;;5.18;;
56299;SDS011;42209;6.376;-10.782;2023-07-30T06:05:56;4.75;;;4.30;;
56299;SDS011;42209;6.376;-10.782;2023-07-30T06:08:25;5.63;;;5.07;;
56299;SDS011;42209;6.376;-10.782;2023-07-30T06:10:54;5.63;;;5.13;;
56299;SDS011;42209;6.376;-10.782;2023-07-30T06:13:22;6.28;;;5.68;;
56299;SDS011;42209;6.376;-10.782;2023-07-30T06:15:51;6.90;;;5.20;;
56299;SDS011;42209;6.376;-10.782;2023-07-30T06:18:19;6.25;;;5.10;;
56299;SDS011;42209;6.376;-10.782;2023-07-30T06:20:48;6.00;;;5.47;;
56299;SDS011;42209;6.376;-10.782;2023-07-30T06:23:16;6.35;;;5.75;;
56299;SDS011;42209;6.376;-10.782;2023-07-30T06:25:45;5.53;;;5.03;;
56299;SDS011;42209;6.376;-10.782;2023-07-30T06:28:13;5.13;;;4.72;;
56299;SDS011;42209;6.376;-10.782;2023-07-30T06:30:42;6.20;;;5.38;;
56299;SDS011;42209;6.376;-10.782;2023-07-30T06:33:10;6.03;;;5.45;;
56299;SDS011;42209;6.376;-10.782;2023-07-30T06:35:39;6.28;;;5.45;;
56299;SDS011;42209;6.376;-10.782;2023-07-30T06:38:08;6.22;;;5.72;;
56299;SDS011;42209;6.376;-10.782;2023-07-30T06:40:37;6.18;;;5.65;;
56299;SDS011;42209;6.376;-10.782;2023-07-30T06:43:05;5.22;;;4.80;;
56299;SDS011;42209;6.376;-10.782;2023-07-30T06:45:34;6.40;;;5.72;;
56299;SDS011;42209;6.376;-10.782;2023-07-30T06:48:02;6.25;;;5.28;;
56299;SDS011;42209;6.376;-10.782;2023-07-30T06:50:31;6.38;;;5.85;;
56299;SDS011;42209;6.376;-10.782;2023-07-30T06:53:00;5.90;;;5.40;;
56299;SDS011;42209;6.376;-10.782;2023-07-30T06:55:28;10.55;;;5.43;;
56299;SDS011;42209;6.376;-10.782;2023-07-30T07:00:25;8.02;;;5.20;;
56299;SDS011;42209;6.376;-10.782;2023-07-30T07:02:54;5.97;;;5.38;;
56299;SDS011;42209;6.376;-10.782;2023-07-30T07:05:22;11.00;;;5.63;;
56299;SDS011;42209;6.376;-10.782;2023-07-30T07:07:52;10.73;;;5.40;;
56299;SDS011;42209;6.376;-10.782;2023-07-30T07:10:21;15.65;;;6.43;;
56299;SDS011;42209;6.376;-10.782;2023-07-30T07:12:49;9.93;;;6.50;;
56299;SDS011;42209;6.376;-10.782;2023-07-30T07:15:18;14.88;;;6.13;;
56299;SDS011;42209;6.376;-10.782;2023-07-30T07:20:15;11.90;;;6.47;;
56299;SDS011;42209;6.376;-10.782;2023-07-30T07:25:12;8.52;;;6.05;;
56299;SDS011;42209;6.376;-10.782;2023-07-30T07:27:41;11.93;;;6.03;;
56299;SDS011;42209;6.376;-10.782;2023-07-30T07:30:09;10.32;;;5.18;;
56299;SDS011;42209;6.376;-10.782;2023-07-30T07:32:38;9.20;;;6.47;;
56299;SDS011;42209;6.376;-10.782;2023-07-30T07:35:07;5.88;;;5.22;;
56299;SDS011;42209;6.376;-10.782;2023-07-30T07:37:36;8.23;;;5.82;;
56299;SDS011;42209;6.376;-10.782;2023-07-30T07:40:05;8.88;;;5.72;;
56299;SDS011;42209;6.376;-10.782;2023-07-30T07:42:34;7.40;;;5.50;;
56299;SDS011;42209;6.376;-10.782;2023-07-30T07:45:03;9.90;;;5.72;;
56299;SDS011;42209;6.376;-10.782;2023-07-30T07:47:34;6.93;;;5.18;;
56299;SDS011;42209;6.376;-10.782;2023-07-30T07:52:32;8.10;;;6.40;;
56299;SDS011;42209;6.376;-10.782;2023-07-30T07:55:01;6.78;;;6.07;;
56299;SDS011;42209;6.376;-10.782;2023-07-30T07:57:31;8.02;;;5.93;;
56299;SDS011;42209;6.376;-10.782;2023-07-30T08:00:01;9.63;;;7.10;;
56299;SDS011;42209;6.376;-10.782;2023-07-30T08:02:37;8.25;;;5.95;;
56299;SDS011;42209;6.376;-10.782;2023-07-30T08:05:06;7.50;;;6.55;;
56299;SDS011;42209;6.376;-10.782;2023-07-30T08:07:35;10.35;;;6.55;;
56299;SDS011;42209;6.376;-10.782;2023-07-30T08:10:04;7.03;;;6.15;;
56299;SDS011;42209;6.376;-10.782;2023-07-30T08:12:34;9.32;;;7.40;;
56299;SDS011;42209;6.376;-10.782;2023-07-30T08:17:31;9.85;;;6.53;;
56299;SDS011;42209;6.376;-10.782;2023-07-30T08:19:59;7.85;;;6.93;;
56299;SDS011;42209;6.376;-10.782;2023-07-30T08:24:56;7.53;;;6.85;;
56299;SDS011;42209;6.376;-10.782;2023-07-30T08:27:25;8.55;;;7.55;;
56299;SDS011;42209;6.376;-10.782;2023-07-30T08:32:22;8.98;;;7.50;;
56299;SDS011;42209;6.376;-10.782;2023-07-30T08:37:19;8.80;;;6.43;;
56299;SDS011;42209;6.376;-10.782;2023-07-30T08:39:47;7.65;;;6.90;;
56299;SDS011;42209;6.376;-10.782;2023-07-30T08:42:16;8.50;;;7.70;;
56299;SDS011;42209;6.376;-10.782;2023-07-30T08:44:45;8.20;;;7.35;;
56299;SDS011;42209;6.376;-10.782;2023-07-30T08:47:13;9.80;;;6.18;;
56299;SDS011;42209;6.376;-10.782;2023-07-30T08:49:43;9.57;;;6.75;;
56299;SDS011;42209;6.376;-10.782;2023-07-30T08:52:11;7.38;;;6.68;;
56299;SDS011;42209;6.376;-10.782;2023-07-30T08:54:42;7.97;;;6.03;;
56299;SDS011;42209;6.376;-10.782;2023-07-30T08:57:12;7.05;;;5.90;;
56299;SDS011;42209;6.376;-10.782;2023-07-30T08:59:47;6.88;;;6.18;;
56299;SDS011;42209;6.376;-10.782;2023-07-30T09:02:24;7.70;;;6.53;;
56299;SDS011;42209;6.376;-10.782;2023-07-30T09:04:59;7.63;;;6.93;;
56299;SDS011;42209;6.376;-10.782;2023-07-30T09:07:28;7.65;;;6.72;;
56299;SDS011;42209;6.376;-10.782;2023-07-30T09:09:57;9.68;;;7.68;;
56299;SDS011;42209;6.376;-10.782;2023-07-30T09:12:30;8.95;;;7.20;;
56299;SDS011;42209;6.376;-10.782;2023-07-30T09:14:59;7.43;;;6.55;;
56299;SDS011;42209;6.376;-10.782;2023-07-30T09:17:29;8.63;;;7.68;;
56299;SDS011;42209;6.376;-10.782;2023-07-30T09:20:01;8.57;;;7.28;;
56299;SDS011;42209;6.376;-10.782;2023-07-30T09:22:32;7.82;;;6.40;;
56299;SDS011;42209;6.376;-10.782;2023-07-30T09:25:02;8.35;;;7.55;;
56299;SDS011;42209;6.376;-10.782;2023-07-30T09:27:31;9.52;;;7.90;;
56299;SDS011;42209;6.376;-10.782;2023-07-30T09:30:01;7.50;;;6.80;;
56299;SDS011;42209;6.376;-10.782;2023-07-30T09:32:31;7.45;;;6.57;;
56299;SDS011;42209;6.376;-10.782;2023-07-30T09:35:07;7.75;;;6.60;;
56299;SDS011;42209;6.376;-10.782;2023-07-30T09:37:39;5.75;;;5.25;;
56299;SDS011;42209;6.376;-10.782;2023-07-30T09:40:12;6.70;;;6.10;;
56299;SDS011;42209;6.376;-10.782;2023-07-30T09:42:42;7.00;;;6.22;;
56299;SDS011;42209;6.376;-10.782;2023-07-30T09:45:22;6.03;;;5.45;;
56299;SDS011;42209;6.376;-10.782;2023-07-30T09:47:53;5.88;;;5.38;;
56299;SDS011;42209;6.376;-10.782;2023-07-30T09:50:22;7.20;;;6.50;;
56299;SDS011;42209;6.376;-10.782;2023-07-30T09:52:50;7.72;;;6.07;;
56299;SDS011;42209;6.376;-10.782;2023-07-30T09:55:19;7.22;;;6.55;;
56299;SDS011;42209;6.376;-10.782;2023-07-30T09:57:48;6.85;;;5.55;;
56299;SDS011;42209;6.376;-10.782;2023-07-30T10:00:16;6.82;;;6.22;;
56299;SDS011;42209;6.376;-10.782;2023-07-30T10:02:47;7.65;;;5.80;;
56299;SDS011;42209;6.376;-10.782;2023-07-30T10:05:20;6.00;;;5.40;;
56299;SDS011;42209;6.376;-10.782;2023-07-30T10:07:58;8.27;;;5.80;;
56299;SDS011;42209;6.376;-10.782;2023-07-30T10:10:30;7.47;;;6.35;;
56299;SDS011;42209;6.376;-10.782;2023-07-30T10:13:01;8.15;;;5.68;;
56299;SDS011;42209;6.376;-10.782;2023-07-30T10:15:34;10.20;;;7.32;;
56299;SDS011;42209;6.376;-10.782;2023-07-30T10:18:05;10.00;;;6.43;;
56299;SDS011;42209;6.376;-10.782;2023-07-30T10:20:34;8.90;;;6.28;;
56299;SDS011;42209;6.376;-10.782;2023-07-30T10:23:04;8.35;;;6.20;;
56299;SDS011;42209;6.376;-10.782;2023-07-30T10:25:46;9.27;;;6.75;;
56299;SDS011;42209;6.376;-10.782;2023-07-30T10:28:26;12.43;;;6.45;;
56299;SDS011;42209;6.376;-10.782;2023-07-30T10:31:01;8.27;;;6.18;;
56299;SDS011;42209;6.376;-10.782;2023-07-30T10:33:45;7.90;;;6.65;;
56299;SDS011;42209;6.376;-10.782;2023-07-30T10:36:26;9.00;;;7.18;;
56299;SDS011;42209;6.376;-10.782;2023-07-30T10:41:51;7.13;;;6.47;;
56299;SDS011;42209;6.376;-10.782;2023-07-30T10:44:34;14.45;;;7.60;;
56299;SDS011;42209;6.376;-10.782;2023-07-30T10:47:06;7.60;;;6.57;;
56299;SDS011;42209;6.376;-10.782;2023-07-30T10:49:53;9.65;;;6.35;;
56299;SDS011;42209;6.376;-10.782;2023-07-30T10:52:28;8.40;;;6.38;;
56299;SDS011;42209;6.376;-10.782;2023-07-30T10:57:31;7.72;;;6.18;;
56299;SDS011;42209;6.376;-10.782;2023-07-30T11:00:00;7.03;;;6.32;;
56299;SDS011;42209;6.376;-10.782;2023-07-30T11:02:28;7.45;;;6.60;;
56299;SDS011;42209;6.376;-10.782;2023-07-30T11:07:32;10.30;;;6.93;;
56299;SDS011;42209;6.376;-10.782;2023-07-30T11:10:01;7.63;;;6.82;;
56299;SDS011;42209;6.376;-10.782;2023-07-30T11:12:29;8.05;;;7.25;;
56299;SDS011;42209;6.376;-10.782;2023-07-30T11:15:01;7.43;;;6.32;;
56299;SDS011;42209;6.376;-10.782;2023-07-30T11:17:30;8.02;;;6.43;;
56299;SDS011;42209;6.376;-10.782;2023-07-30T11:19:59;7.70;;;6.38;;
56299;SDS011;42209;6.376;-10.782;2023-07-30T11:22:31;7.38;;;6.63;;
56299;SDS011;42209;6.376;-10.782;2023-07-30T11:25:00;9.40;;;6.93;;
56299;SDS011;42209;6.376;-10.782;2023-07-30T11:27:29;9.18;;;6.47;;
56299;SDS011;42209;6.376;-10.782;2023-07-30T11:29:58;6.72;;;6.03;;
56299;SDS011;42209;6.376;-10.782;2023-07-30T11:32:27;6.75;;;6.00;;
56299;SDS011;42209;6.376;-10.782;2023-07-30T11:34:56;7.53;;;6.72;;
56299;SDS011;42209;6.376;-10.782;2023-07-30T11:39:53;6.82;;;6.05;;
56299;SDS011;42209;6.376;-10.782;2023-07-30T11:42:22;7.82;;;6.95;;
56299;SDS011;42209;6.376;-10.782;2023-07-30T11:47:22;9.55;;;6.82;;
56299;SDS011;42209;6.376;-10.782;2023-07-30T11:49:55;7.07;;;6.45;;
56299;SDS011;42209;6.376;-10.782;2023-07-30T11:52:24;7.72;;;6.13;;
56299;SDS011;42209;6.376;-10.782;2023-07-30T11:57:34;9.60;;;7.80;;
56299;SDS011;42209;6.376;-10.782;2023-07-30T12:00:03;7.60;;;6.55;;
56299;SDS011;42209;6.376;-10.782;2023-07-30T12:02:53;10.50;;;6.50;;
56299;SDS011;42209;6.376;-10.782;2023-07-30T12:08:00;6.55;;;5.85;;
56299;SDS011;42209;6.376;-10.782;2023-07-30T12:10:42;7.50;;;6.13;;
56299;SDS011;42209;6.376;-10.782;2023-07-30T12:13:18;6.25;;;5.13;;
56299;SDS011;42209;6.376;-10.782;2023-07-30T12:15:53;6.45;;;5.50;;
56299;SDS011;42209;6.376;-10.782;2023-07-30T12:18:23;6.05;;;4.40;;
56299;SDS011;42209;6.376;-10.782;2023-07-30T12:20:52;6.25;;;4.75;;
56299;SDS011;42209;6.376;-10.782;2023-07-30T12:23:21;7.20;;;5.43;;
56299;SDS011;42209;6.376;-10.782;2023-07-30T12:25:50;5.15;;;4.25;;
56299;SDS011;42209;6.376;-10.782;2023-07-30T12:28:19;4.72;;;4.32;;
56299;SDS011;42209;6.376;-10.782;2023-07-30T12:30:47;5.50;;;5.00;;
56299;SDS011;42209;6.376;-10.782;2023-07-30T12:33:16;5.45;;;5.00;;
56299;SDS011;42209;6.376;-10.782;2023-07-30T12:35:44;5.15;;;4.65;;
56299;SDS011;42209;6.376;-10.782;2023-07-30T12:38:13;8.93;;;5.35;;
56299;SDS011;42209;6.376;-10.782;2023-07-30T12:40:41;7.32;;;5.82;;
56299;SDS011;42209;6.376;-10.782;2023-07-30T12:43:09;6.10;;;5.47;;
56299;SDS011;42209;6.376;-10.782;2023-07-30T12:45:38;6.25;;;5.10;;
56299;SDS011;42209;6.376;-10.782;2023-07-30T12:48:06;6.80;;;5.20;;
56299;SDS011;42209;6.376;-10.782;2023-07-30T12:50:35;8.68;;;5.80;;
56299;SDS011;42209;6.376;-10.782;2023-07-30T12:53:03;6.70;;;5.68;;
56299;SDS011;42209;6.376;-10.782;2023-07-30T12:55:32;6.82;;;5.07;;
56299;SDS011;42209;6.376;-10.782;2023-07-30T12:58:00;7.55;;;5.70;;
56299;SDS011;42209;6.376;-10.782;2023-07-30T13:00:28;7.75;;;5.57;;
56299;SDS011;42209;6.376;-10.782;2023-07-30T13:02:57;7.35;;;4.72;;
56299;SDS011;42209;6.376;-10.782;2023-07-30T13:05:25;6.72;;;5.85;;
56299;SDS011;42209;6.376;-10.782;2023-07-30T13:07:54;9.48;;;4.97;;
56299;SDS011;42209;6.376;-10.782;2023-07-30T13:10:22;11.32;;;5.30;;
56299;SDS011;42209;6.376;-10.782;2023-07-30T13:12:51;5.50;;;5.00;;
56299;SDS011;42209;6.376;-10.782;2023-07-30T13:15:19;5.72;;;4.53;;
56299;SDS011;42209;6.376;-10.782;2023-07-30T13:17:48;6.25;;;5.22;;
56299;SDS011;42209;6.376;-10.782;2023-07-30T13:20:16;6.50;;;5.60;;
56299;SDS011;42209;6.376;-10.782;2023-07-30T13:22:49;5.63;;;5.15;;
56299;SDS011;42209;6.376;-10.782;2023-07-30T13:25:18;6.70;;;4.75;;
56299;SDS011;42209;6.376;-10.782;2023-07-30T13:27:46;7.78;;;5.15;;
56299;SDS011;42209;6.376;-10.782;2023-07-30T13:30:17;5.35;;;4.85;;
56299;SDS011;42209;6.376;-10.782;2023-07-30T13:32:56;6.85;;;5.40;;
56299;SDS011;42209;6.376;-10.782;2023-07-30T13:35:24;5.72;;;5.15;;
56299;SDS011;42209;6.376;-10.782;2023-07-30T13:37:53;5.85;;;5.30;;
56299;SDS011;42209;6.376;-10.782;2023-07-30T13:40:22;6.28;;;5.60;;
56299;SDS011;42209;6.376;-10.782;2023-07-30T13:42:51;6.05;;;5.45;;
56299;SDS011;42209;6.376;-10.782;2023-07-30T13:45:19;4.72;;;4.32;;
56299;SDS011;42209;6.376;-10.782;2023-07-30T13:47:48;5.38;;;4.72;;
56299;SDS011;42209;6.376;-10.782;2023-07-30T13:52:44;5.53;;;5.00;;
56299;SDS011;42209;6.376;-10.782;2023-07-30T13:55:13;6.57;;;5.13;;
56299;SDS011;42209;6.376;-10.782;2023-07-30T13:57:41;5.88;;;5.28;;
56299;SDS011;42209;6.376;-10.782;2023-07-30T14:00:10;5.63;;;4.95;;
56299;SDS011;42209;6.376;-10.782;2023-07-30T14:02:39;5.70;;;5.20;;
56299;SDS011;42209;6.376;-10.782;2023-07-30T14:05:09;5.60;;;5.05;;
56299;SDS011;42209;6.376;-10.782;2023-07-30T14:07:38;4.97;;;4.57;;
56299;SDS011;42209;6.376;-10.782;2023-07-30T14:10:08;6.00;;;5.38;;
56299;SDS011;42209;6.376;-10.782;2023-07-30T14:12:37;6.28;;;5.68;;
56299;SDS011;42209;6.376;-10.782;2023-07-30T14:17:34;6.10;;;5.60;;
56299;SDS011;42209;6.376;-10.782;2023-07-30T14:20:04;5.80;;;5.30;;
56299;SDS011;42209;6.376;-10.782;2023-07-30T14:22:35;5.57;;;5.07;;
56299;SDS011;42209;6.376;-10.782;2023-07-30T14:25:03;5.18;;;4.68;;
56299;SDS011;42209;6.376;-10.782;2023-07-30T14:27:32;4.38;;;3.97;;
56299;SDS011;42209;6.376;-10.782;2023-07-30T14:32:29;5.43;;;4.93;;
56299;SDS011;42209;6.376;-10.782;2023-07-30T14:34:58;4.43;;;4.00;;
56299;SDS011;42209;6.376;-10.782;2023-07-30T14:39:55;5.45;;;4.95;;
56299;SDS011;42209;6.376;-10.782;2023-07-30T14:42:24;4.93;;;4.40;;
56299;SDS011;42209;6.376;-10.782;2023-07-30T14:44:53;4.95;;;4.45;;
56299;SDS011;42209;6.376;-10.782;2023-07-30T14:47:21;5.60;;;5.05;;
56299;SDS011;42209;6.376;-10.782;2023-07-30T14:49:50;5.35;;;4.85;;
56299;SDS011;42209;6.376;-10.782;2023-07-30T14:52:18;5.78;;;5.25;;
56299;SDS011;42209;6.376;-10.782;2023-07-30T14:57:15;5.40;;;4.97;;
56299;SDS011;42209;6.376;-10.782;2023-07-30T14:59:43;6.10;;;5.25;;
56299;SDS011;42209;6.376;-10.782;2023-07-30T15:04:46;5.78;;;5.18;;
56299;SDS011;42209;6.376;-10.782;2023-07-30T15:07:15;8.15;;;5.25;;
56299;SDS011;42209;6.376;-10.782;2023-07-30T15:09:44;6.40;;;5.80;;
56299;SDS011;42209;6.376;-10.782;2023-07-30T15:12:12;5.80;;;5.15;;
56299;SDS011;42209;6.376;-10.782;2023-07-30T15:14:41;5.93;;;5.28;;
56299;SDS011;42209;6.376;-10.782;2023-07-30T15:17:09;6.60;;;5.53;;
56299;SDS011;42209;6.376;-10.782;2023-07-30T15:19:38;5.60;;;5.07;;
56299;SDS011;42209;6.376;-10.782;2023-07-30T15:24:35;7.55;;;5.78;;
56299;SDS011;42209;6.376;-10.782;2023-07-30T15:27:20;7.45;;;6.45;;
56299;SDS011;42209;6.376;-10.782;2023-07-30T15:29:49;7.45;;;6.65;;
56299;SDS011;42209;6.376;-10.782;2023-07-30T15:32:18;10.45;;;6.35;;
56299;SDS011;42209;6.376;-10.782;2023-07-30T15:34:46;7.30;;;6.35;;
56299;SDS011;42209;6.376;-10.782;2023-07-30T15:37:15;7.63;;;6.20;;
56299;SDS011;42209;6.376;-10.782;2023-07-30T15:42:12;7.97;;;6.95;;
56299;SDS011;42209;6.376;-10.782;2023-07-30T15:44:41;7.20;;;6.43;;
56299;SDS011;42209;6.376;-10.782;2023-07-30T15:49:38;7.28;;;6.57;;
56299;SDS011;42209;6.376;-10.782;2023-07-30T15:52:06;7.82;;;5.80;;
56299;SDS011;42209;6.376;-10.782;2023-07-30T15:54:35;8.90;;;6.18;;
56299;SDS011;42209;6.376;-10.782;2023-07-30T15:57:06;6.93;;;5.55;;
56299;SDS011;42209;6.376;-10.782;2023-07-30T15:59:38;5.15;;;4.65;;
56299;SDS011;42209;6.376;-10.782;2023-07-30T16:02:10;6.10;;;5.43;;
56299;SDS011;42209;6.376;-10.782;2023-07-30T16:04:41;6.53;;;5.20;;
56299;SDS011;42209;6.376;-10.782;2023-07-30T16:07:12;6.05;;;5.45;;
56299;SDS011;42209;6.376;-10.782;2023-07-30T16:09:40;6.07;;;5.47;;
56299;SDS011;42209;6.376;-10.782;2023-07-30T16:12:15;6.68;;;6.07;;
56299;SDS011;42209;6.376;-10.782;2023-07-30T16:14:44;6.20;;;5.60;;
56299;SDS011;42209;6.376;-10.782;2023-07-30T16:17:13;6.05;;;5.47;;